Time;durP1;ratioP1;P1;durP2;ratioP2;P2;SDS_P1;SDS_P2;PMS_P1;PMS_P2;Temp;Humidity;BMP_temperature;BMP_pressure;BME280_temperature;BME280_humidity;BME280_pressure;Samples;Min_cycle;Max_cycle;Signal;HPM_P1;HPM_P2
2023/07/09 00:02:03;;;;;;;6.82;2.13;;;;;;;10.89;100.00;100739.19;5020141;28;20048;-80
2023/07/09 00:04:29;;;;;;;5.93;2.80;;;;;;;10.87;100.00;100733.13;5052880;28;20029;-80
2023/07/09 00:07:02;;;;;;;8.48;2.75;;;;;;;10.88;100.00;100740.22;5019878;28;20476;-82
2023/07/09 00:09:28;;;;;;;7.05;2.22;;;;;;;10.61;100.00;100711.13;5019827;28;20087;-81
2023/07/09 00:11:53;;;;;;;8.40;2.35;;;;;;;10.71;100.00;100749.38;5019778;28;20037;-79
2023/07/09 00:14:20;;;;;;;7.53;2.40;;;;;;;10.55;100.00;100745.75;5019478;28;20090;-79
2023/07/09 00:16:49;;;;;;;11.90;4.07;;;;;;;10.45;100.00;100726.34;5035969;28;20041;-80
2023/07/09 00:19:19;;;;;;;7.20;2.00;;;;;;;10.50;100.00;100752.69;5052610;28;20029;-81
2023/07/09 00:21:47;;;;;;;4.60;2.25;;;;;;;10.45;100.00;100745.16;5019955;28;20697;-79
2023/07/09 00:24:13;;;;;;;9.10;2.72;;;;;;;10.47;100.00;100736.91;5036190;28;20032;-82
2023/07/09 00:26:43;;;;;;;7.47;3.03;;;;;;;10.46;100.00;100744.13;5019686;28;20040;-79
2023/07/09 00:29:10;;;;;;;4.82;2.17;;;;;;;10.23;100.00;100711.78;5019818;28;20075;-80
2023/07/09 00:31:40;;;;;;;7.68;2.70;;;;;;;10.37;100.00;100734.41;5020267;28;20037;-82
2023/07/09 00:34:12;;;;;;;8.70;2.67;;;;;;;10.50;100.00;100744.63;5036239;28;20029;-79
2023/07/09 00:36:43;;;;;;;7.32;5.82;;;;;;;10.48;100.00;100735.91;5035847;28;20120;-79
2023/07/09 00:39:17;;;;;;;8.35;5.63;;;;;;;10.39;100.00;100723.50;5051990;28;20051;-80
2023/07/09 00:41:46;;;;;;;7.85;2.80;;;;;;;10.54;100.00;100754.03;5035771;28;20128;-80
2023/07/09 00:44:33;;;;;;;11.80;2.60;;;;;;;10.55;100.00;100744.94;5036137;28;20029;-79
2023/07/09 00:47:00;;;;;;;8.57;2.95;;;;;;;10.59;100.00;100745.44;5052444;28;20036;-80
2023/07/09 00:49:32;;;;;;;3.88;2.75;;;;;;;10.62;100.00;100747.75;5052139;28;20486;-80
2023/07/09 00:52:02;;;;;;;6.13;2.90;;;;;;;10.63;100.00;100738.66;5052008;28;20025;-81
2023/07/09 00:54:33;;;;;;;7.75;3.22;;;;;;;10.75;100.00;100751.53;5019078;28;20494;-79
2023/07/09 00:57:13;;;;;;;6.93;3.15;;;;;;;10.70;100.00;100740.47;5035690;28;20036;-79
2023/07/09 00:59:41;;;;;;;9.35;5.85;;;;;;;10.68;100.00;100736.28;5035351;28;20029;-83
2023/07/09 01:02:08;;;;;;;5.78;4.93;;;;;;;10.68;100.00;100734.44;5052145;28;20041;-80
2023/07/09 01:04:36;;;;;;;23.60;21.63;;;;;;;10.85;100.00;100754.03;5018822;28;20360;-80
2023/07/09 01:07:01;;;;;;;23.05;19.23;;;;;;;10.87;100.00;100738.50;5051771;28;20090;-83
2023/07/09 01:09:27;;;;;;;20.30;18.52;;;;;;;10.96;100.00;100739.31;5018542;28;20426;-78
2023/07/09 01:11:56;;;;;;;20.23;14.80;;;;;;;10.99;100.00;100745.16;5035290;28;20064;-81
2023/07/09 01:14:24;;;;;;;16.48;13.35;;;;;;;10.93;100.00;100727.06;5051795;28;20052;-80
2023/07/09 01:16:57;;;;;;;15.88;11.82;;;;;;;10.88;100.00;100710.63;5018076;28;20033;-82
2023/07/09 01:19:30;;;;;;;17.75;14.55;;;;;;;10.97;100.00;100717.59;5051483;28;20039;-80
2023/07/09 01:22:00;;;;;;;16.13;12.35;;;;;;;11.11;100.00;100723.22;5019061;28;20095;-83
2023/07/09 01:25:01;;;;;;;10.32;3.17;;;;;;;11.37;100.00;100734.44;5018981;28;20483;-80
2023/07/09 01:27:37;;;;;;;8.77;3.58;;;;;;;11.55;100.00;100719.81;5051343;28;20040;-80
2023/07/09 01:30:06;;;;;;;7.32;3.03;;;;;;;11.53;100.00;100705.69;5048682;28;20063;-81
2023/07/09 01:32:33;;;;;;;13.88;12.15;;;;;;;11.67;100.00;100729.13;5035119;28;20076;-80
2023/07/09 01:35:04;;;;;;;10.13;3.65;;;;;;;11.63;100.00;100722.44;5051533;28;20048;-80
2023/07/09 01:37:31;;;;;;;14.18;10.27;;;;;;;11.53;100.00;100725.38;5018605;28;20029;-82
2023/07/09 01:40:00;;;;;;;14.70;9.35;;;;;;;11.41;100.00;100706.16;5051371;28;20414;-80
2023/07/09 01:42:28;;;;;;;11.75;7.13;;;;;;;11.53;100.00;100721.84;5051343;28;20468;-82
2023/07/09 01:44:54;;;;;;;7.28;3.63;;;;;;;11.52;100.00;100723.72;5035307;28;20117;-82
2023/07/09 01:47:24;;;;;;;4.63;2.05;;;;;;;11.54;100.00;100729.75;5053934;28;20029;-83
2023/07/09 01:50:00;;;;;;;11.85;2.90;;;;;;;11.57;100.00;100729.38;5022315;28;20032;-84
2023/07/09 01:52:32;;;;;;;;;;;;;;;11.59;100.00;100723.78;5017905;28;20460;-85
2023/07/09 01:55:16;;;;;;;10.90;7.20;;;;;;;11.39;100.00;100692.03;5068945;28;20116;-86
2023/07/09 01:57:45;;;;;;;6.50;2.38;;;;;;;11.09;100.00;100658.00;5037646;28;20368;-84
2023/07/09 02:00:20;;;;;;;7.55;2.90;;;;;;;11.25;100.00;100690.16;5023381;28;20128;-84
2023/07/09 02:03:01;;;;;;;8.18;2.55;;;;;;;11.01;100.00;100658.91;5022760;28;20064;-84
2023/07/09 02:05:34;;;;;;;7.95;2.67;;;;;;;11.26;100.00;100689.13;5038725;28;20086;-84
2023/07/09 02:08:39;;;;;;;6.43;2.25;;;;;;;11.45;100.00;100710.13;5039552;28;20527;-84
2023/07/09 02:11:22;;;;;;;8.30;4.43;;;;;;;11.34;100.00;100689.03;5039643;28;20067;-85
2023/07/09 02:14:08;;;;;;;10.15;6.28;;;;;;;11.61;100.00;100713.69;5024099;28;20047;-84
2023/07/09 02:16:35;;;;;;;8.98;5.72;;;;;;;11.51;100.00;100694.25;5038582;28;20040;-83
2023/07/09 02:19:04;;;;;;;8.70;4.97;;;;;;;11.48;100.00;100679.31;5054093;28;20124;-85
2023/07/09 02:21:40;;;;;;;7.40;3.63;;;;;;;11.37;100.00;100671.69;5054661;28;20033;-86
2023/07/09 02:24:13;;;;;;;7.00;4.00;;;;;;;11.54;100.00;100693.91;5054503;28;20035;-84
2023/07/09 02:26:39;;;;;;;11.15;6.43;;;;;;;11.64;100.00;100707.94;5037950;28;20095;-81
2023/07/09 02:29:10;;;;;;;9.77;3.72;;;;;;;11.72;100.00;100698.94;5037909;28;20037;-79
2023/07/09 02:31:36;;;;;;;10.23;3.80;;;;;;;11.77;100.00;100691.97;5021792;28;20045;-82
2023/07/09 02:34:02;;;;;;;11.88;3.53;;;;;;;11.94;100.00;100694.53;5054233;28;20083;-80
2023/07/09 02:36:28;;;;;;;12.65;4.43;;;;;;;11.92;100.00;100683.09;5037930;28;20501;-80
2023/07/09 02:38:54;;;;;;;9.02;3.45;;;;;;;12.09;100.00;100698.03;5020995;28;20119;-80
2023/07/09 02:41:20;;;;;;;7.22;3.33;;;;;;;11.95;100.00;100674.63;5037982;28;20071;-80
2023/07/09 02:43:45;;;;;;;9.88;2.58;;;;;;;12.10;100.00;100697.03;5053909;28;20036;-80
2023/07/09 02:46:12;;;;;;;9.75;2.55;;;;;;;12.10;100.00;100695.16;5038062;28;20044;-84
2023/07/09 02:48:37;;;;;;;11.25;2.88;;;;;;;12.05;100.00;100692.19;5037298;28;20408;-81
2023/07/09 02:51:05;;;;;;;8.18;2.65;;;;;;;11.97;100.00;100680.69;5054349;28;20096;-81
2023/07/09 02:53:32;;;;;;;7.90;2.47;;;;;;;11.90;100.00;100674.34;5037338;28;20064;-82
2023/07/09 02:55:57;;;;;;;6.30;2.90;;;;;;;11.81;100.00;100663.66;5053718;28;20072;-80
2023/07/09 02:58:26;;;;;;;7.38;2.88;;;;;;;11.87;100.00;100680.94;5036378;28;20037;-80
2023/07/09 03:00:52;;;;;;;8.40;2.60;;;;;;;11.76;100.00;100676.84;5037213;28;20029;-80
2023/07/09 03:03:19;;;;;;;10.00;3.00;;;;;;;11.62;100.00;100662.34;5037276;28;20045;-80
2023/07/09 03:05:46;;;;;;;7.68;2.72;;;;;;;11.57;100.00;100663.94;5020811;28;20075;-81
2023/07/09 03:08:12;;;;;;;9.10;2.67;;;;;;;11.50;100.00;100662.97;5037338;28;20112;-81
2023/07/09 03:10:38;;;;;;;6.68;2.38;;;;;;;11.30;100.00;100631.22;5037223;28;20456;-84
2023/07/09 03:13:03;;;;;;;11.27;3.03;;;;;;;11.34;100.00;100648.66;5020155;28;20391;-83
2023/07/09 03:15:30;;;;;;;8.15;3.05;;;;;;;11.27;100.00;100650.41;5036590;28;20037;-80
2023/07/09 03:17:55;;;;;;;7.05;2.38;;;;;;;11.21;100.00;100657.34;5020553;28;20055;-82
2023/07/09 03:20:21;;;;;;;13.40;3.28;;;;;;;11.09;100.00;100644.56;5036649;28;20471;-81
2023/07/09 03:22:49;;;;;;;10.55;2.55;;;;;;;10.89;100.00;100620.00;5020214;28;20029;-81
2023/07/09 03:25:15;;;;;;;6.65;2.30;;;;;;;10.79;100.00;100620.22;5053290;28;20048;-80
2023/07/09 03:27:40;;;;;;;11.30;3.17;;;;;;;10.88;100.00;100656.00;5036778;28;20479;-83
2023/07/09 03:30:06;;;;;;;9.63;2.47;;;;;;;10.63;100.00;100618.50;5020366;28;20388;-80
2023/07/09 03:32:34;;;;;;;7.70;2.42;;;;;;;10.74;100.00;100638.75;5053032;28;20032;-79
2023/07/09 03:35:00;;;;;;;8.35;2.60;;;;;;;10.79;100.00;100655.19;5036220;28;20041;-84
2023/07/09 03:37:26;;;;;;;6.57;2.20;;;;;;;10.79;100.00;100655.19;5020313;28;20380;-82
2023/07/09 03:39:51;;;;;;;4.80;1.92;;;;;;;10.75;100.00;100643.13;5036471;28;20036;-83
2023/07/09 03:42:17;;;;;;;6.07;2.00;;;;;;;10.76;100.00;100651.00;5036084;28;20029;-79
2023/07/09 03:44:43;;;;;;;8.95;3.15;;;;;;;10.86;100.00;100660.69;5052845;28;20391;-81
2023/07/09 03:47:08;;;;;;;9.88;2.70;;;;;;;10.91;100.00;100652.94;5036098;28;20462;-80
2023/07/09 03:49:34;;;;;;;7.35;2.58;;;;;;;10.93;100.00;100642.84;5036395;28;20087;-82
2023/07/09 03:52:00;;;;;;;6.88;2.42;;;;;;;11.11;100.00;100651.38;5035553;28;20047;-83
2023/07/09 03:54:25;;;;;;;4.80;2.92;;;;;;;11.21;100.00;100635.81;5019899;28;20468;-81
2023/07/09 03:56:58;;;;;;;4.47;2.20;;;;;;;11.28;100.00;100635.94;5035903;28;20051;-80
2023/07/09 03:59:26;;;;;;;7.60;2.70;;;;;;;11.35;100.00;100618.03;5036264;28;20029;-83
2023/07/09 04:01:52;;;;;;;5.63;2.45;;;;;;;11.60;100.00;100639.31;5030975;28;20052;-81
2023/07/09 04:04:21;;;;;;;3.45;2.00;;;;;;;11.71;100.00;100646.09;5019546;28;20487;-81
2023/07/09 04:06:47;;;;;;;8.32;2.65;;;;;;;11.71;100.00;100636.16;5051666;28;20554;-81
2023/07/09 04:09:15;;;;;;;6.97;2.60;;;;;;;11.83;100.00;100645.44;5035308;28;20127;-82
2023/07/09 04:11:41;;;;;;;10.40;2.88;;;;;;;11.94;100.00;100652.25;5035584;28;20083;-80
2023/07/09 04:14:07;;;;;;;8.35;2.83;;;;;;;12.09;100.00;100661.16;5018913;28;20029;-83
2023/07/09 04:16:33;;;;;;;8.20;2.80;;;;;;;12.14;100.00;100655.19;5051816;28;20036;-83
2023/07/09 04:19:00;;;;;;;13.65;3.00;;;;;;;12.22;100.00;100652.38;5018834;28;20060;-84
2023/07/09 04:21:27;;;;;;;7.65;2.53;;;;;;;12.23;100.00;100640.59;5036234;28;20199;-83
2023/07/09 04:23:53;;;;;;;8.60;2.65;;;;;;;12.36;100.00;100658.78;5036161;28;20044;-83
2023/07/09 04:26:19;;;;;;;9.60;2.03;;;;;;;12.32;100.00;100646.69;5035842;28;20037;-83
2023/07/09 04:28:45;;;;;;;5.72;1.88;;;;;;;12.36;100.00;100661.47;5035757;28;20036;-80
2023/07/09 04:31:11;;;;;;;10.32;2.45;;;;;;;12.29;100.00;100645.22;5035493;28;20399;-80
2023/07/09 04:33:40;;;;;;;5.18;2.45;;;;;;;12.43;100.00;100653.44;5035660;28;20096;-82
2023/07/09 04:36:06;;;;;;;7.40;2.22;;;;;;;12.25;100.00;100616.13;5035465;28;20060;-80
2023/07/09 04:38:35;;;;;;;6.40;2.30;;;;;;;12.49;100.00;100658.06;5035199;28;20036;-82
2023/07/09 04:41:00;;;;;;;7.88;2.42;;;;;;;12.47;100.00;100649.34;5035451;28;20033;-80
2023/07/09 04:43:26;;;;;;;10.05;2.47;;;;;;;12.35;100.00;100648.16;5035175;28;20060;-81
2023/07/09 04:45:51;;;;;;;4.43;2.13;;;;;;;12.38;100.00;100659.41;5035180;28;20029;-80
2023/07/09 04:48:17;;;;;;;8.13;2.50;;;;;;;12.28;100.00;100657.03;5035154;28;20041;-79
2023/07/09 04:50:43;;;;;;;8.32;2.40;;;;;;;12.21;100.00;100666.88;5035786;28;20029;-79
2023/07/09 04:53:08;;;;;;;6.47;3.15;;;;;;;11.95;100.00;100639.59;5035000;28;20460;-84
2023/07/09 04:55:34;;;;;;;5.45;2.42;;;;;;;12.07;100.00;100679.38;5034915;28;20033;-80
2023/07/09 04:58:04;;;;;;;4.88;2.17;;;;;;;11.91;100.00;100668.78;5018828;28;20036;-81
2023/07/09 05:00:30;;;;;;;5.15;2.05;;;;;;;11.94;100.00;100670.28;5018858;28;20064;-81
2023/07/09 05:02:55;;;;;;;7.15;1.90;;;;;;;11.93;100.00;100680.19;5034995;28;20068;-81
2023/07/09 05:05:23;;;;;;;9.13;2.42;;;;;;;11.74;100.00;100651.94;5035044;28;20087;-86
2023/07/09 05:07:50;;;;;;;7.60;1.50;;;;;;;11.87;100.00;100667.47;5051496;28;20541;-84
2023/07/09 05:10:16;;;;;;;3.63;1.52;;;;;;;11.82;100.00;100656.41;5019069;28;20391;-82
2023/07/09 05:12:53;;;;;;;5.65;1.70;;;;;;;11.82;100.00;100651.84;5018934;28;20124;-83
2023/07/09 05:15:22;;;;;;;1.70;1.13;;;;;;;11.85;100.00;100650.63;5020661;28;20045;-84
2023/07/09 05:17:48;;;;;;;1.38;0.77;;;;;;;11.84;100.00;100648.97;5034933;28;20042;-83
2023/07/09 05:20:15;;;;;;;0.30;0.30;;;;;;;11.74;100.00;100624.16;5035390;28;20029;-85
2023/07/09 05:22:43;;;;;;;1.20;0.60;;;;;;;11.72;100.00;100616.25;5022623;28;20055;-83
2023/07/09 05:25:09;;;;;;;0.52;0.40;;;;;;;11.76;100.00;100628.34;5039720;28;20071;-83
2023/07/09 05:27:38;;;;;;;0.88;0.88;;;;;;;11.79;100.00;100636.06;5039800;28;20142;-82
2023/07/09 05:30:04;;;;;;;0.80;0.43;;;;;;;11.79;100.00;100636.06;5028503;28;20044;-87
2023/07/09 05:32:30;;;;;;;1.10;0.40;;;;;;;11.74;100.00;100633.06;5038588;28;20040;-82
2023/07/09 05:35:01;;;;;;;0.77;0.40;;;;;;;11.71;100.00;100628.06;5038536;28;20025;-83
2023/07/09 05:37:32;;;;;;;1.30;0.50;;;;;;;11.75;100.00;100633.91;5039060;28;20029;-84
2023/07/09 05:39:58;;;;;;;1.05;0.40;;;;;;;11.65;100.00;100613.50;5022695;28;20110;-82
2023/07/09 05:42:28;;;;;;;1.27;0.50;;;;;;;11.77;100.00;100632.69;5038874;28;20056;-81
2023/07/09 05:44:56;;;;;;;0.50;0.32;;;;;;;11.77;100.00;100630.00;5022270;28;20036;-81
2023/07/09 05:47:30;;;;;;;0.52;0.40;;;;;;;11.73;100.00;100627.91;5022271;28;20044;-81
2023/07/09 05:49:58;;;;;;;1.00;0.40;;;;;;;11.78;100.00;100641.66;5022989;28;20472;-81
2023/07/09 05:52:24;;;;;;;0.30;0.30;;;;;;;11.74;100.00;100630.38;5039381;28;20037;-83
2023/07/09 05:54:53;;;;;;;0.88;0.47;;;;;;;11.73;100.00;100630.59;5038313;28;20463;-82
2023/07/09 05:57:22;;;;;;;0.38;0.30;;;;;;;11.75;100.00;100629.38;5038267;28;20062;-82
2023/07/09 05:59:52;;;;;;;0.90;0.40;;;;;;;11.79;100.00;100619.06;5039559;28;20036;-82
2023/07/09 06:02:21;;;;;;;0.47;0.40;;;;;;;11.66;100.00;100579.31;5038601;28;20094;-82
2023/07/09 06:04:50;;;;;;;0.60;0.40;;;;;;;11.91;100.00;100619.44;5021580;28;20082;-84
2023/07/09 06:07:19;;;;;;;0.40;0.40;;;;;;;11.94;100.00;100605.63;5022242;28;20045;-83
2023/07/09 06:09:47;;;;;;;1.08;0.50;;;;;;;11.98;100.00;100583.47;5033916;28;20049;-83
2023/07/09 06:12:13;;;;;;;0.45;0.40;;;;;;;12.01;100.00;100579.56;5022521;28;20031;-81
2023/07/09 06:14:39;;;;;;;0.70;0.40;;;;;;;12.07;100.00;100589.59;5021723;28;20119;-83
2023/07/09 06:17:05;;;;;;;0.30;0.30;;;;;;;12.08;100.00;100608.25;5021624;28;20069;-82
2023/07/09 06:19:32;;;;;;;2.05;0.65;;;;;;;12.02;100.00;100624.38;5021875;28;20108;-84
2023/07/09 06:22:00;;;;;;;0.85;0.40;;;;;;;12.02;100.00;100624.38;5038412;28;20072;-82
2023/07/09 06:24:30;;;;;;;0.30;0.30;;;;;;;12.02;100.00;100624.38;5021481;28;20025;-82
2023/07/09 06:26:55;;;;;;;0.47;0.30;;;;;;;11.91;100.00;100614.91;5021701;28;20033;-80
2023/07/09 06:29:21;;;;;;;0.30;0.30;;;;;;;11.99;100.00;100622.06;5021630;28;20434;-80
2023/07/09 06:31:47;;;;;;;1.80;0.60;;;;;;;11.99;100.00;100609.41;5054330;28;20033;-81
2023/07/09 06:34:15;;;;;;;0.57;0.57;;;;;;;12.03;100.00;100610.69;5037581;28;20052;-80
2023/07/09 06:36:40;;;;;;;0.22;0.22;;;;;;;12.01;100.00;100601.97;5021167;28;20032;-82
2023/07/09 06:39:09;;;;;;;0.73;0.40;;;;;;;12.24;100.00;100601.81;5038094;28;20114;-81
2023/07/09 06:41:41;;;;;;;1.65;0.68;;;;;;;12.42;100.00;100595.16;5035080;28;20065;-80
2023/07/09 06:44:07;;;;;;;0.30;0.30;;;;;;;12.64;100.00;100587.88;5033811;28;20039;-81
2023/07/09 06:46:33;;;;;;;0.52;0.40;;;;;;;12.91;100.00;100594.34;5021591;28;20426;-82
2023/07/09 06:49:02;;;;;;;0.30;0.30;;;;;;;12.81;100.00;100572.25;5054252;28;20388;-82
2023/07/09 06:51:27;;;;;;;0.50;0.32;;;;;;;12.98;100.00;100609.56;5037670;28;20025;-81
2023/07/09 06:53:53;;;;;;;0.40;0.30;;;;;;;13.02;100.00;100610.03;5020825;28;20136;-81
2023/07/09 06:56:19;;;;;;;0.47;0.35;;;;;;;13.18;100.00;100598.09;5036959;28;20083;-82
2023/07/09 06:58:45;;;;;;;1.52;0.55;;;;;;;13.28;100.00;100587.78;5040041;28;20115;-84
2023/07/09 07:01:14;;;;;;;0.30;0.30;;;;;;;13.57;100.00;100618.31;5023790;28;20152;-82
2023/07/09 07:03:41;;;;;;;0.60;0.60;;;;;;;14.19;100.00;100619.25;5053135;28;20033;-83
2023/07/09 07:06:12;;;;;;;2.15;0.70;;;;;;;15.86;100.00;100629.09;5018863;28;20037;-85
2023/07/09 07:08:44;;;;;;;2.20;0.70;;;;;;;15.30;100.00;100597.91;5020033;28;20072;-82
2023/07/09 07:11:10;;;;;;;3.00;0.88;;;;;;;15.61;100.00;100620.78;5035527;28;20502;-82
2023/07/09 07:13:38;;;;;;;1.55;0.63;;;;;;;16.00;100.00;100621.72;5052680;28;20040;-81
2023/07/09 07:16:17;;;;;;;1.15;0.50;;;;;;;15.77;100.00;100614.94;5035623;28;20068;-83
2023/07/09 07:18:52;;;;;;;1.98;0.80;;;;;;;17.92;100.00;100589.50;5037300;28;20044;-83
2023/07/09 07:21:31;;;;;;;1.20;0.70;;;;;;;20.09;100.00;100617.16;5019616;28;20430;-82
2023/07/09 07:24:00;;;;;;;1.55;0.73;;;;;;;20.78;100.00;100605.34;5037080;28;20031;-82
2023/07/09 07:26:26;;;;;;;1.95;0.80;;;;;;;21.29;100.00;100628.88;5052430;28;20117;-82
2023/07/09 07:28:52;;;;;;;0.75;0.55;;;;;;;21.27;100.00;100624.72;5036279;28;20123;-82
2023/07/09 07:31:20;;;;;;;1.70;0.73;;;;;;;21.00;100.00;100616.38;5036606;28;20091;-82
2023/07/09 07:33:46;;;;;;;1.52;0.57;;;;;;;21.05;100.00;100616.47;5020282;28;20035;-82
2023/07/09 07:36:12;;;;;;;0.85;0.60;;;;;;;20.62;100.00;100629.66;5053069;28;20044;-80
2023/07/09 07:38:37;;;;;;;0.65;0.60;;;;;;;20.84;100.00;100612.56;5053530;28;20153;-81
2023/07/09 07:41:29;;;;;;;1.42;0.57;;;;;;;20.15;100.00;100618.91;5053288;28;20431;-82
2023/07/09 07:44:04;;;;;;;0.30;0.30;;;;;;;19.19;100.00;100613.00;5037325;28;20036;-81
2023/07/09 07:46:40;;;;;;;0.55;0.40;;;;;;;18.77;100.00;100623.13;5037840;28;20041;-81
2023/07/09 07:49:13;;;;;;;1.52;0.65;;;;;;;18.71;100.00;100619.41;5026773;28;20035;-81
2023/07/09 07:51:40;;;;;;;0.60;0.60;;;;;;;21.60;100.00;100590.22;5060324;28;20029;-78
2023/07/09 07:54:09;;;;;;;1.67;0.93;;;;;;;22.53;100.00;100625.84;5038824;28;20041;-82
2023/07/09 07:56:37;;;;;;;1.58;0.63;;;;;;;24.30;99.32;100630.06;5019961;28;20033;-82
2023/07/09 07:59:16;;;;;;;0.60;0.60;;;;;;;25.63;91.87;100637.56;5020934;28;20047;-81
2023/07/09 08:01:44;;;;;;;0.43;0.43;;;;;;;25.53;91.48;100645.84;5015419;28;20090;-80
2023/07/09 08:04:10;;;;;;;0.43;0.43;;;;;;;23.60;99.52;100636.88;5052499;28;20029;-80
2023/07/09 08:06:35;;;;;;;1.42;0.75;;;;;;;21.72;100.00;100631.97;5019500;28;20047;-81
2023/07/09 08:09:01;;;;;;;1.25;0.77;;;;;;;20.78;100.00;100643.59;5034974;28;20049;-82
2023/07/09 08:11:32;;;;;;;0.60;0.60;;;;;;;21.93;100.00;100638.53;5051161;28;20037;-81
2023/07/09 08:14:00;;;;;;;2.30;0.90;;;;;;;21.20;100.00;100651.44;5035253;28;20126;-80
2023/07/09 08:16:27;;;;;;;2.15;1.00;;;;;;;22.14;100.00;100640.44;5035170;28;20040;-79
2023/07/09 08:18:53;;;;;;;2.13;0.90;;;;;;;21.49;100.00;100644.78;5017830;28;20037;-78
2023/07/09 08:21:19;;;;;;;0.75;0.60;;;;;;;20.55;100.00;100639.91;5018752;28;20029;-78
2023/07/09 08:23:46;;;;;;;1.08;0.90;;;;;;;19.94;100.00;100630.50;5035067;28;20135;-81
2023/07/09 08:26:15;;;;;;;5.30;2.08;;;;;;;21.00;100.00;100647.25;5018670;28;20037;-80
2023/07/09 08:28:45;;;;;;;2.38;1.55;;;;;;;20.89;100.00;100639.16;5035106;28;20064;-83
2023/07/09 08:31:14;;;;;;;7.22;3.17;;;;;;;22.16;100.00;100646.50;5051641;28;20446;-80
2023/07/09 08:33:41;;;;;;;5.85;3.28;;;;;;;23.39;100.00;100641.41;5018662;28;20035;-83
2023/07/09 08:36:12;;;;;;;2.30;1.10;;;;;;;23.87;92.02;100648.59;5035049;28;20029;-80
2023/07/09 08:38:38;;;;;;;9.35;5.35;;;;;;;22.64;97.47;100649.53;5035181;28;20044;-80
2023/07/09 08:41:37;;;;;;;11.07;6.25;;;;;;;21.00;100.00;100641.78;5051253;28;20033;-80
2023/07/09 08:44:19;;;;;;;9.00;4.82;;;;;;;21.23;100.00;100653.66;5034181;28;20043;-84
2023/07/09 08:47:23;;;;;;;6.60;4.32;;;;;;;20.81;100.00;100645.84;5035269;28;20040;-84
2023/07/09 08:50:04;;;;;;;3.28;1.25;;;;;;;20.97;100.00;100639.56;5036205;28;20033;-83
2023/07/09 08:52:58;;;;;;;3.13;1.20;;;;;;;20.60;100.00;100645.47;5018854;28;20498;-83
2023/07/09 08:55:40;;;;;;;;;;;;;;;19.88;100.00;100647.84;5015197;28;20037;-85
2023/07/09 08:58:27;;;;;;;1.33;0.82;;;;;;;19.23;100.00;100637.88;5069404;28;20359;-81
2023/07/09 09:01:02;;;;;;;3.00;0.88;;;;;;;18.54;100.00;100646.44;5034299;28;20036;-82
2023/07/09 09:04:35;;;;;;;;;;;;;;;;;;;;;
2023/07/09 09:08:13;;;;;;;6.18;1.70;;;;;;;17.72;100.00;100627.75;5018383;28;20037;-87
2023/07/09 09:11:34;;;;;;;4.45;2.30;;;;;;;17.20;100.00;100610.09;4361835;28;20065249;-84
2023/07/09 09:14:27;;;;;;;1.75;1.02;;;;;;;17.00;100.00;100651.88;5033500;28;20514;-84
2023/07/09 09:16:55;;;;;;;3.45;1.35;;;;;;;16.51;100.00;100637.13;5035462;28;20491;-85
2023/07/09 09:20:23;;;;;;;3.70;1.20;;;;;;;16.21;100.00;100631.44;5018971;28;20528;-85
2023/07/09 09:23:12;;;;;;;2.17;0.90;;;;;;;15.97;100.00;100646.56;5041930;28;20113;-84
2023/07/09 09:25:41;;;;;;;3.47;0.98;;;;;;;17.51;100.00;100642.63;5019180;28;20044;-84
2023/07/09 09:28:07;;;;;;;7.82;1.95;;;;;;;17.14;100.00;100637.09;5034746;28;20032;-85
2023/07/09 09:30:34;;;;;;;10.50;2.13;;;;;;;17.19;100.00;100654.66;5018284;28;20465;-85
2023/07/09 09:33:12;;;;;;;2.78;1.10;;;;;;;17.05;100.00;100638.44;5034905;28;20490;-84
2023/07/09 09:35:48;;;;;;;1.55;0.90;;;;;;;17.31;100.00;100656.41;5051816;28;20037;-82
2023/07/09 09:38:22;;;;;;;3.58;1.20;;;;;;;17.47;100.00;100638.72;5019748;28;20036;-83
2023/07/09 09:40:48;;;;;;;2.75;1.65;;;;;;;19.51;100.00;100637.16;5019216;28;20029;-85
2023/07/09 09:43:17;;;;;;;2.85;1.30;;;;;;;21.90;100.00;100655.47;5018857;28;20387;-82
2023/07/09 09:45:44;;;;;;;2.97;1.25;;;;;;;22.11;100.00;100618.22;5035261;28;20542;-83
2023/07/09 09:48:31;;;;;;;2.10;1.13;;;;;;;23.74;87.14;100653.72;5018627;28;20391;-83
2023/07/09 09:51:01;;;;;;;1.63;1.20;;;;;;;24.96;89.55;100642.31;5051227;28;20033;-82
2023/07/09 09:53:28;;;;;;;1.60;0.88;;;;;;;25.75;84.47;100657.38;5019267;28;20033;-86
2023/07/09 09:55:55;;;;;;;2.15;0.90;;;;;;;24.12;89.98;100650.63;5018695;28;20130;-82
2023/07/09 09:58:28;;;;;;;5.78;1.83;;;;;;;23.86;89.49;100640.63;5018536;28;20120;-82
2023/07/09 10:00:56;;;;;;;2.05;1.00;;;;;;;23.45;88.22;100635.69;5018556;28;20029;-83
2023/07/09 10:03:33;;;;;;;3.28;2.97;;;;;;;22.53;86.51;100643.09;5018686;28;20127;-82
2023/07/09 10:06:22;;;;;;;4.65;1.05;;;;;;;21.73;85.84;100644.59;5035268;28;20090;-82
2023/07/09 10:08:57;;;;;;;1.88;1.67;;;;;;;21.88;81.23;100663.94;5044010;28;20037;-82
2023/07/09 10:11:48;;;;;;;2.72;1.25;;;;;;;24.26;66.89;100659.19;5022091;28;20044;-81
2023/07/09 10:14:31;;;;;;;3.50;1.50;;;;;;;26.34;54.20;100660.50;5055735;28;20118;-84
2023/07/09 10:17:11;;;;;;;3.63;1.30;;;;;;;28.04;49.75;100659.63;5054598;28;20029;-84
2023/07/09 10:19:48;;;;;;;2.50;1.02;;;;;;;26.06;51.33;100644.34;5038479;28;20041;-85
2023/07/09 10:22:52;;;;;;;12.63;11.57;;;;;;;28.81;43.14;100666.06;5021909;28;20036;-84
2023/07/09 10:25:40;;;;;;;40.67;36.97;;;;;;;29.31;40.36;100666.38;5038373;28;20037;-84
2023/07/09 10:28:21;;;;;;;1.67;1.58;;;;;;;30.34;38.12;100668.03;5038578;28;20044;-85
2023/07/09 10:30:51;;;;;;;2.17;1.17;;;;;;;29.80;37.78;100668.53;5054359;28;20029;-85
2023/07/09 10:33:26;;;;;;;1.23;0.70;;;;;;;28.39;39.38;100627.09;5054511;28;20060;-86
2023/07/09 10:36:07;;;;;;;1.60;0.90;;;;;;;25.87;42.86;100665.34;5054446;28;20090;-85
2023/07/09 10:38:46;;;;;;;2.10;1.17;;;;;;;24.98;44.87;100654.69;5054572;28;20032;-85
2023/07/09 10:41:12;;;;;;;5.63;5.32;;;;;;;23.98;46.84;100656.88;5037845;28;20033;-85
2023/07/09 10:43:40;;;;;;;4.88;4.50;;;;;;;22.56;50.91;100678.22;5054276;28;20423;-85
2023/07/09 10:46:14;;;;;;;1.20;1.05;;;;;;;21.83;53.17;100680.31;5054533;28;20123;-86
2023/07/09 10:48:58;;;;;;;5.57;5.18;;;;;;;21.56;55.57;100677.44;5021612;28;20090;-86
2023/07/09 10:51:31;;;;;;;3.15;2.38;;;;;;;21.41;56.80;100669.84;5021313;28;20124;-87
2023/07/09 10:54:18;;;;;;;2.72;1.40;;;;;;;24.22;51.75;100662.75;5021041;28;20389;-86
2023/07/09 10:56:46;;;;;;;0.93;0.77;;;;;;;27.76;41.30;100674.28;5037542;28;20036;-86
2023/07/09 10:59:31;;;;;;;2.05;1.00;;;;;;;27.05;40.39;100662.00;5039201;28;20036;-86
2023/07/09 11:02:13;;;;;;;1.98;1.85;;;;;;;28.61;38.71;100667.22;5033469;28;20033;-85
2023/07/09 11:04:53;;;;;;;3.07;1.00;;;;;;;28.42;36.33;100676.28;5044879;28;20033;-87
2023/07/09 11:07:34;;;;;;;1.63;0.80;;;;;;;25.92;40.46;100692.06;5022001;28;20468;-86
2023/07/09 11:10:02;;;;;;;4.38;4.07;;;;;;;26.16;40.96;100671.03;5038137;28;20472;-87
2023/07/09 11:12:35;;;;;;;1.00;0.68;;;;;;;23.78;44.29;100672.16;5070974;28;20037;-87
2023/07/09 11:15:20;;;;;;;1.65;1.23;;;;;;;22.05;49.20;100690.44;5054181;28;20037;-88
2023/07/09 11:18:00;;;;;;;3.95;1.38;;;;;;;20.71;53.45;100687.47;5021348;28;20091;-89
2023/07/09 11:20:44;;;;;;;1.70;0.80;;;;;;;20.29;56.57;100675.97;5023147;28;20475;-88
2023/07/09 11:23:21;;;;;;;3.58;1.23;;;;;;;21.21;54.09;100642.97;5020721;28;20116;-88
2023/07/09 11:25:49;;;;;;;2.28;1.00;;;;;;;21.26;53.83;100688.72;5020831;28;20043;-88
2023/07/09 11:28:15;;;;;;;3.20;1.58;;;;;;;21.06;54.33;100695.50;5020696;28;20033;-88
2023/07/09 11:30:52;;;;;;;4.30;1.50;;;;;;;20.97;54.58;100691.50;5020364;28;20029;-88
2023/07/09 11:33:28;;;;;;;2.85;1.70;;;;;;;20.81;53.40;100663.06;5020930;28;20131;-88
2023/07/09 11:36:23;;;;;;;4.85;2.17;;;;;;;21.32;51.60;100678.69;5053537;28;20041;-88
2023/07/09 11:38:49;;;;;;;2.22;1.33;;;;;;;22.01;49.23;100706.53;5036970;28;20032;-88
2023/07/09 11:41:24;;;;;;;5.65;1.38;;;;;;;23.82;46.00;100684.25;5036562;28;20025;-87